Terminal Aerodrome Forecast
Issued by NWS Dodge City, KS

Home | Current Version | Previous Version | Text Only | Print | Product List | Glossary On
Versions: 1 2 3 4 5 6 7 8 9 10 11 12 13 14 15
000
FTUS43 KDDC 260520
TAFDDC
TAF
KDDC 260520Z 2606/2706 15012KT P6SM FEW150
     FM261000 17008KT P6SM SCT250
     FM262000 20015KT P6SM FEW250
     FM270500 22009KT P6SM FEW200=

USA.gov is the U.S. government's official web portal to all federal, state and local government web resources and services.